Time;durP1;ratioP1;P1;durP2;ratioP2;P2;SDS_P1;SDS_P2;PMS_P1;PMS_P2;Temp;Humidity;BMP_temperature;BMP_pressure;BME280_temperature;BME280_humidity;BME280_pressure;Samples;Min_cycle;Max_cycle;Signal;HPM_P1;HPM_P2
2021/05/26 00:01:24;;;;;;;12.07;4.28;;;;;;;8.97;64.98;98740.91;4943977;29;20082;-68
2021/05/26 00:03:51;;;;;;;11.07;4.38;;;;;;;8.96;65.11;98742.81;4945730;29;20466;-69
2021/05/26 00:06:17;;;;;;;12.65;4.50;;;;;;;9.01;64.86;98739.25;4944185;28;20556;-69
2021/05/26 00:08:43;;;;;;;14.95;4.82;;;;;;;8.98;64.70;98746.06;4943823;29;20071;-69
2021/05/26 00:11:11;;;;;;;16.02;4.90;;;;;;;8.94;64.96;98745.03;4950474;29;20035;-69
2021/05/26 00:13:37;;;;;;;34.78;9.38;;;;;;;8.91;65.14;98740.91;4949217;29;20035;-69
2021/05/26 00:16:05;;;;;;;22.90;8.18;;;;;;;8.87;65.09;98745.28;4941658;28;20055;-69
2021/05/26 00:18:31;;;;;;;16.73;7.30;;;;;;;8.86;64.77;98754.59;4946579;28;20046;-69
2021/05/26 00:20:57;;;;;;;12.52;5.07;;;;;;;8.86;65.26;98753.78;4947616;28;20027;-68
2021/05/26 00:23:22;;;;;;;14.30;5.68;;;;;;;8.86;65.16;98743.66;4946011;28;20462;-68
2021/05/26 00:25:48;;;;;;;12.77;4.43;;;;;;;8.87;64.84;98745.28;4951887;28;20366;-68
2021/05/26 00:28:14;;;;;;;11.30;4.43;;;;;;;8.82;64.55;98748.03;4944833;28;20036;-68
2021/05/26 00:30:48;;;;;;;17.80;5.20;;;;;;;8.81;64.50;98746.41;4947674;29;20038;-68
2021/05/26 00:33:15;;;;;;;11.32;4.00;;;;;;;8.75;65.31;98742.88;4947068;29;20114;-67
2021/05/26 00:35:40;;;;;;;20.95;7.40;;;;;;;8.72;65.42;98746.16;4945449;29;20122;-68
2021/05/26 00:38:06;;;;;;;14.10;5.00;;;;;;;8.71;65.22;98752.72;4947389;29;20174;-68
2021/05/26 00:40:32;;;;;;;13.73;5.35;;;;;;;8.70;64.93;98751.06;4947532;29;20417;-69
2021/05/26 00:42:58;;;;;;;16.60;6.00;;;;;;;8.68;65.18;98753.28;4948236;28;20027;-69
2021/05/26 00:45:23;;;;;;;13.60;4.55;;;;;;;8.70;65.43;98753.81;4947425;29;20023;-69
2021/05/26 00:47:50;;;;;;;11.70;3.92;;;;;;;8.68;64.94;98749.72;4947145;28;20031;-69
2021/05/26 00:50:19;;;;;;;13.07;4.15;;;;;;;8.67;64.67;98750.81;4945319;28;20031;-69
2021/05/26 00:52:44;;;;;;;11.82;4.68;;;;;;;8.62;65.36;98757.09;4941699;29;20509;-69
2021/05/26 00:55:13;;;;;;;11.45;4.22;;;;;;;8.59;65.20;98735.78;4944651;29;20038;-69
2021/05/26 00:57:38;;;;;;;10.35;4.00;;;;;;;8.55;65.25;98740.19;4936772;29;20024;-68
2021/05/26 01:00:10;;;;;;;11.70;4.15;;;;;;;8.52;65.51;98730.59;4937066;29;20118;-69
2021/05/26 01:02:36;;;;;;;8.90;3.45;;;;;;;8.51;65.65;98734.44;4940889;29;20375;-69
2021/05/26 01:05:03;;;;;;;10.30;3.97;;;;;;;8.47;65.60;98741.50;4940393;29;20039;-69
2021/05/26 01:07:29;;;;;;;8.10;4.00;;;;;;;8.46;65.30;98743.44;4939837;29;20024;-69
2021/05/26 01:09:56;;;;;;;11.48;4.53;;;;;;;8.46;65.32;98737.97;4950391;29;20086;-69
2021/05/26 01:12:22;;;;;;;10.23;3.75;;;;;;;8.43;65.01;98738.53;4952961;28;20044;-69
2021/05/26 01:14:47;;;;;;;9.70;3.95;;;;;;;8.41;65.53;98737.97;4952322;29;20678;-69
2021/05/26 01:17:13;;;;;;;12.82;4.60;;;;;;;8.40;65.48;98741.81;4952323;29;20074;-69
2021/05/26 01:19:39;;;;;;;9.05;3.63;;;;;;;8.39;65.16;98733.88;4952137;29;20031;-69
2021/05/26 01:22:07;;;;;;;9.75;4.03;;;;;;;8.39;65.84;98721.03;4940134;29;20042;-69
2021/05/26 01:24:33;;;;;;;15.48;3.90;;;;;;;8.43;65.66;98721.28;4947932;29;20077;-69
2021/05/26 01:26:59;;;;;;;9.23;3.45;;;;;;;8.40;65.94;98711.75;4949781;29;20673;-68
2021/05/26 01:29:24;;;;;;;10.25;2.95;;;;;;;8.37;64.94;98719.66;4935934;29;20032;-69
2021/05/26 01:31:49;;;;;;;11.77;3.80;;;;;;;8.38;65.63;98713.94;4951470;29;20035;-69
2021/05/26 01:34:15;;;;;;;12.25;3.85;;;;;;;8.42;65.75;98708.72;4947332;28;20034;-69
2021/05/26 01:36:43;;;;;;;13.07;3.70;;;;;;;8.42;65.58;98709.56;4948752;29;20689;-69
2021/05/26 01:39:09;;;;;;;14.52;4.00;;;;;;;8.43;65.34;98710.34;4949720;29;20038;-70
2021/05/26 01:41:35;;;;;;;12.07;3.40;;;;;;;8.43;65.41;98708.47;4941623;29;20039;-70
2021/05/26 01:44:02;;;;;;;6.93;3.40;;;;;;;8.40;65.39;98713.63;4933572;29;20122;-69
2021/05/26 01:46:27;;;;;;;8.25;3.20;;;;;;;8.34;65.33;98721.88;4933093;29;20027;-69
2021/05/26 01:48:52;;;;;;;6.63;2.90;;;;;;;8.28;64.98;98713.94;4933136;29;20072;-69
2021/05/26 01:51:18;;;;;;;7.85;3.03;;;;;;;8.21;65.57;98725.16;4943715;29;20042;-69
2021/05/26 01:53:44;;;;;;;7.15;3.13;;;;;;;8.18;65.43;98721.03;4952473;29;20500;-69
2021/05/26 01:56:22;;;;;;;7.63;3.40;;;;;;;8.13;65.55;98722.97;4952366;28;20031;-69
2021/05/26 01:58:51;;;;;;;10.98;4.50;;;;;;;8.08;65.23;98725.69;4952207;28;20031;-69
2021/05/26 02:01:18;;;;;;;10.50;4.22;;;;;;;8.03;65.41;98727.31;4952556;28;20032;-69
2021/05/26 02:03:44;;;;;;;10.32;4.18;;;;;;;8.02;65.97;98733.06;4952253;29;20400;-69
2021/05/26 02:06:13;;;;;;;10.48;4.78;;;;;;;8.02;65.85;98735.81;4951845;29;20393;-69
2021/05/26 02:08:40;;;;;;;14.20;5.05;;;;;;;8.07;65.78;98727.63;4963189;28;20490;-69
2021/05/26 02:13:50;;;;;;;14.10;5.28;;;;;;;8.05;65.72;98733.34;4935153;29;20058;-69
2021/05/26 02:16:15;;;;;;;13.85;5.15;;;;;;;8.03;65.70;98726.53;4948253;29;20478;-69
2021/05/26 02:18:41;;;;;;;9.18;4.55;;;;;;;7.99;65.78;98734.44;4932876;28;20044;-69
2021/05/26 02:21:06;;;;;;;11.57;4.47;;;;;;;7.96;65.81;98739.63;4932920;29;20091;-69
2021/05/26 02:23:32;;;;;;;10.82;4.18;;;;;;;7.90;65.74;98747.00;4947841;28;20024;-70
2021/05/26 02:25:57;;;;;;;14.35;4.97;;;;;;;7.89;65.96;98745.38;4939981;29;20453;-69
2021/05/26 02:28:23;;;;;;;13.73;4.95;;;;;;;7.89;66.19;98739.91;4935143;29;20094;-70
2021/05/26 02:30:48;;;;;;;12.55;5.65;;;;;;;7.90;65.87;98744.28;4943696;29;20027;-70
2021/05/26 02:33:13;;;;;;;13.60;5.43;;;;;;;7.90;65.98;98741.53;4948744;29;20032;-69
2021/05/26 02:35:39;;;;;;;16.17;5.53;;;;;;;7.92;65.86;98742.09;4950168;29;20449;-70
2021/05/26 02:38:04;;;;;;;13.65;5.72;;;;;;;7.95;66.05;98732.53;4936947;29;20464;-69
2021/05/26 02:40:33;;;;;;;14.80;5.10;;;;;;;7.94;66.05;98730.88;4932534;29;20043;-69
2021/05/26 02:42:59;;;;;;;17.38;5.38;;;;;;;7.93;66.03;98731.97;4933546;29;20030;-69
2021/05/26 02:45:24;;;;;;;12.50;4.85;;;;;;;7.95;66.14;98732.53;4947359;28;20106;-69
2021/05/26 02:47:49;;;;;;;13.90;5.05;;;;;;;7.95;66.28;98736.06;4950298;29;20078;-69
2021/05/26 02:50:18;;;;;;;12.07;5.10;;;;;;;7.94;65.89;98730.88;4951761;28;20023;-69
2021/05/26 02:52:45;;;;;;;19.65;5.30;;;;;;;7.92;65.90;98733.06;4947310;29;20049;-69
2021/05/26 02:55:11;;;;;;;12.93;5.55;;;;;;;7.89;65.93;98729.78;4932697;29;20034;-69
2021/05/26 02:57:36;;;;;;;15.10;5.18;;;;;;;7.92;65.99;98731.16;4950455;29;20094;-69
2021/05/26 03:00:05;;;;;;;11.93;5.38;;;;;;;7.88;65.75;98725.41;4951404;29;20449;-69
2021/05/26 03:02:30;;;;;;;14.80;6.03;;;;;;;7.87;65.73;98729.22;4941706;29;20043;-69
2021/05/26 03:04:56;;;;;;;12.98;5.40;;;;;;;7.83;65.88;98730.06;4931157;29;20059;-69
2021/05/26 03:07:21;;;;;;;13.60;5.65;;;;;;;7.78;66.06;98727.31;4936335;29;20072;-68
2021/05/26 03:09:46;;;;;;;14.55;5.30;;;;;;;7.76;65.97;98730.31;4932386;29;20027;-68
2021/05/26 03:12:12;;;;;;;17.60;6.15;;;;;;;7.75;66.16;98734.97;4932783;29;20027;-68
2021/05/26 03:14:37;;;;;;;20.02;7.43;;;;;;;7.75;65.83;98736.84;4938210;29;20038;-69
2021/05/26 03:17:03;;;;;;;16.48;6.22;;;;;;;7.73;65.83;98736.34;4940857;29;20568;-69
2021/05/26 03:19:28;;;;;;;20.55;7.00;;;;;;;7.70;66.29;98740.41;4935880;29;20082;-69
2021/05/26 03:21:54;;;;;;;15.68;6.72;;;;;;;7.70;66.73;98731.41;4938292;29;20035;-68
2021/05/26 03:24:19;;;;;;;17.13;6.68;;;;;;;7.70;66.16;98734.94;4936762;29;20382;-69
2021/05/26 03:26:45;;;;;;;13.63;5.60;;;;;;;7.71;66.15;98739.31;4939255;29;20031;-69
2021/05/26 03:29:11;;;;;;;13.60;5.57;;;;;;;7.71;66.43;98733.84;4935763;29;20040;-66
2021/05/26 03:31:36;;;;;;;16.65;6.18;;;;;;;7.71;66.22;98736.59;4938894;29;20028;-66
2021/05/26 03:34:03;;;;;;;14.75;6.07;;;;;;;7.72;66.27;98730.03;4941837;29;20035;-66
2021/05/26 03:36:29;;;;;;;15.55;6.70;;;;;;;7.75;66.14;98734.97;4951714;29;20086;-69
2021/05/26 03:38:54;;;;;;;17.92;6.22;;;;;;;7.78;66.39;98739.03;4933972;29;20028;-69
2021/05/26 03:41:20;;;;;;;14.73;5.53;;;;;;;7.83;66.53;98743.72;4951837;29;20035;-69
2021/05/26 03:43:46;;;;;;;13.50;6.38;;;;;;;7.86;66.54;98743.97;4954761;29;20030;-69
2021/05/26 03:46:11;;;;;;;17.45;6.82;;;;;;;7.90;66.58;98742.34;4954615;28;20073;-69
2021/05/26 03:48:37;;;;;;;13.50;5.97;;;;;;;7.95;66.71;98752.44;4937715;29;20448;-69
2021/05/26 03:51:03;;;;;;;19.80;6.28;;;;;;;7.99;66.41;98750.81;4935628;29;20024;-70
2021/05/26 03:53:28;;;;;;;17.00;5.93;;;;;;;8.00;66.50;98757.91;4954686;29;20031;-69
2021/05/26 03:55:53;;;;;;;12.05;5.90;;;;;;;8.02;66.21;98749.47;4954326;29;20117;-69
2021/05/26 03:58:19;;;;;;;13.18;5.65;;;;;;;8.04;66.23;98756.28;4954620;28;20054;-69
2021/05/26 04:00:44;;;;;;;11.88;5.85;;;;;;;8.06;66.33;98750.56;4954143;29;20119;-68
2021/05/26 04:03:09;;;;;;;15.05;5.82;;;;;;;8.09;66.56;98752.75;4953945;29;20074;-69
2021/05/26 04:05:35;;;;;;;12.10;6.22;;;;;;;8.11;66.18;98741.53;4950334;29;20433;-68
2021/05/26 04:08:00;;;;;;;14.75;7.13;;;;;;;8.14;66.23;98744.56;4954201;28;20379;-69
2021/05/26 04:10:26;;;;;;;14.10;5.30;;;;;;;8.17;65.85;98744.00;4953730;29;20338;-69
2021/05/26 04:12:51;;;;;;;17.10;6.10;;;;;;;8.20;65.62;98750.84;4953157;29;20027;-69
2021/05/26 04:15:16;;;;;;;14.45;4.97;;;;;;;8.27;66.47;98745.09;4946323;29;20038;-69
2021/05/26 04:17:42;;;;;;;15.27;5.60;;;;;;;8.31;66.18;98763.41;4937930;29;20632;-69
2021/05/26 04:20:08;;;;;;;15.52;5.75;;;;;;;8.34;65.40;98754.66;4934794;29;20036;-68
2021/05/26 04:22:35;;;;;;;11.82;5.57;;;;;;;8.39;65.55;98767.50;4935121;29;20136;-69
2021/05/26 04:25:01;;;;;;;13.10;6.60;;;;;;;8.45;65.58;98766.41;4939379;29;20039;-69
2021/05/26 04:27:27;;;;;;;15.68;7.07;;;;;;;8.52;65.37;98768.88;4953632;28;20501;-69
2021/05/26 04:29:52;;;;;;;12.95;5.30;;;;;;;8.58;65.68;98759.59;4952360;29;20019;-68
2021/05/26 04:32:18;;;;;;;12.02;4.68;;;;;;;8.69;65.91;98770.50;4943476;29;20074;-69
2021/05/26 04:34:43;;;;;;;14.45;5.78;;;;;;;8.77;64.85;98770.75;4937933;29;20039;-70
2021/05/26 04:37:08;;;;;;;16.63;7.90;;;;;;;8.83;65.33;98760.63;4943433;28;20050;-69
2021/05/26 04:39:34;;;;;;;16.38;7.18;;;;;;;8.94;64.78;98767.72;4953468;29;20039;-69
2021/05/26 04:41:59;;;;;;;12.98;5.13;;;;;;;9.05;64.76;98762.22;4948560;29;20020;-68
2021/05/26 04:44:24;;;;;;;14.63;5.53;;;;;;;9.12;64.94;98761.91;4938313;29;20038;-69
2021/05/26 04:46:50;;;;;;;14.98;4.55;;;;;;;9.22;64.92;98759.94;4953462;29;20054;-69
2021/05/26 04:49:15;;;;;;;12.43;4.63;;;;;;;9.32;64.24;98761.00;4953384;29;20142;-69
2021/05/26 04:51:41;;;;;;;18.67;4.72;;;;;;;9.41;64.50;98758.50;4951346;29;20402;-68
2021/05/26 04:54:06;;;;;;;11.38;3.72;;;;;;;9.49;63.66;98766.97;4934146;29;20040;-68
2021/05/26 04:56:31;;;;;;;12.07;3.85;;;;;;;9.56;64.31;98758.44;4936350;29;20040;-69
2021/05/26 04:58:57;;;;;;;13.57;4.03;;;;;;;9.62;63.97;98759.22;4934390;29;20055;-68
2021/05/26 05:01:22;;;;;;;15.13;4.28;;;;;;;9.72;63.39;98759.16;4940711;29;20030;-68
2021/05/26 05:03:48;;;;;;;9.73;3.97;;;;;;;9.83;63.84;98762.63;4952819;28;20034;-68
2021/05/26 05:06:13;;;;;;;11.40;3.88;;;;;;;9.90;62.95;98765.88;4953168;29;20729;-68
2021/05/26 05:08:39;;;;;;;11.32;4.50;;;;;;;9.95;63.73;98767.78;4952275;29;20020;-68
2021/05/26 05:11:04;;;;;;;9.35;3.13;;;;;;;9.99;62.99;98774.31;4943484;29;20082;-68
2021/05/26 05:13:30;;;;;;;11.55;4.20;;;;;;;10.05;62.72;98770.44;4949002;29;20477;-68
2021/05/26 05:15:56;;;;;;;12.20;3.90;;;;;;;10.12;62.45;98768.19;4952134;29;20035;-68
2021/05/26 05:18:21;;;;;;;12.70;4.30;;;;;;;10.20;62.54;98765.97;4934060;29;20023;-68
2021/05/26 05:20:47;;;;;;;12.35;4.05;;;;;;;10.27;62.27;98769.19;4938971;29;20111;-68
2021/05/26 05:23:12;;;;;;;9.63;4.00;;;;;;;10.33;62.55;98772.69;4936147;29;20026;-68
2021/05/26 05:25:38;;;;;;;11.80;4.13;;;;;;;10.37;61.85;98777.34;4934210;29;20032;-69
2021/05/26 05:28:05;;;;;;;16.20;4.03;;;;;;;10.42;61.51;98774.56;4948532;28;20034;-68
2021/05/26 05:30:31;;;;;;;16.88;4.10;;;;;;;10.49;61.42;98765.19;4935900;29;20031;-68
2021/05/26 05:32:56;;;;;;;20.17;4.32;;;;;;;10.57;61.55;98762.66;4939921;29;20032;-68
2021/05/26 05:35:21;;;;;;;11.15;3.90;;;;;;;10.63;61.79;98777.13;4933770;28;20031;-68
2021/05/26 05:37:47;;;;;;;11.13;3.60;;;;;;;10.69;60.88;98767.75;4934415;29;20058;-68
2021/05/26 05:40:12;;;;;;;9.85;3.55;;;;;;;10.74;61.13;98769.63;4937625;28;20110;-69
2021/05/26 05:42:38;;;;;;;13.35;3.40;;;;;;;10.78;60.76;98758.91;4933759;29;20030;-69
2021/05/26 05:45:04;;;;;;;13.57;4.30;;;;;;;10.84;60.09;98757.72;4936227;29;20038;-67
2021/05/26 05:47:30;;;;;;;12.25;3.58;;;;;;;10.86;59.65;98756.34;4933882;29;20027;-68
2021/05/26 05:49:55;;;;;;;11.43;3.30;;;;;;;10.93;60.73;98755.16;4933593;29;20050;-68
2021/05/26 05:52:21;;;;;;;12.43;3.83;;;;;;;10.97;59.92;98754.28;4933518;29;20067;-67
2021/05/26 05:54:46;;;;;;;14.85;4.35;;;;;;;11.06;60.06;98746.22;4933390;29;20027;-67
2021/05/26 05:57:12;;;;;;;16.33;3.88;;;;;;;11.22;60.12;98754.28;4934666;29;20035;-67
2021/05/26 05:59:37;;;;;;;14.10;3.72;;;;;;;11.32;60.45;98748.66;4936482;29;20034;-68
2021/05/26 06:02:02;;;;;;;16.27;4.25;;;;;;;11.45;59.40;98750.69;4951323;29;20035;-67
2021/05/26 06:04:28;;;;;;;20.73;4.90;;;;;;;11.57;59.51;98749.44;4941870;28;20027;-67
2021/05/26 06:06:53;;;;;;;15.30;4.35;;;;;;;11.69;58.82;98751.75;4938035;28;20111;-68
2021/05/26 06:09:20;;;;;;;9.68;3.72;;;;;;;11.76;58.55;98746.69;4939399;28;20055;-67
2021/05/26 06:11:49;;;;;;;10.93;3.45;;;;;;;11.86;58.21;98749.31;4950360;28;20190;-67
2021/05/26 06:14:14;;;;;;;13.45;3.70;;;;;;;11.95;58.33;98741.19;4940005;29;20035;-67
2021/05/26 06:16:40;;;;;;;15.45;4.45;;;;;;;12.03;57.83;98737.81;4931893;29;20027;-67
2021/05/26 06:19:06;;;;;;;15.15;4.13;;;;;;;12.08;57.59;98739.66;4931834;29;20506;-67
2021/05/26 06:21:33;;;;;;;16.38;3.75;;;;;;;12.17;58.00;98737.06;4933214;29;20047;-67
2021/05/26 06:24:00;;;;;;;9.85;3.05;;;;;;;12.28;57.27;98744.00;4930979;29;20111;-67
2021/05/26 06:26:25;;;;;;;11.80;3.78;;;;;;;12.40;57.58;98753.72;4933667;29;20478;-68
2021/05/26 06:28:51;;;;;;;9.73;3.50;;;;;;;12.50;57.14;98757.09;4936531;28;20038;-67
2021/05/26 06:31:16;;;;;;;11.35;3.92;;;;;;;12.61;57.46;98751.44;4944220;29;20055;-67
2021/05/26 06:33:42;;;;;;;13.77;3.72;;;;;;;12.75;57.45;98746.78;4933301;29;20117;-68
2021/05/26 06:36:09;;;;;;;14.10;3.50;;;;;;;12.87;56.25;98737.19;4933198;29;20043;-67
2021/05/26 06:38:35;;;;;;;12.18;3.05;;;;;;;12.98;56.68;98738.63;4931503;29;20131;-67
2021/05/26 06:41:01;;;;;;;14.98;3.53;;;;;;;13.09;56.55;98740.06;4932996;29;20035;-67
2021/05/26 06:43:26;;;;;;;16.33;3.38;;;;;;;13.17;55.57;98737.72;4935857;28;20031;-68
2021/05/26 06:45:52;;;;;;;9.25;3.03;;;;;;;13.24;55.73;98740.88;4932673;29;20023;-67
2021/05/26 06:48:17;;;;;;;13.10;2.78;;;;;;;13.33;55.53;98733.50;4932183;29;20074;-67
2021/05/26 06:50:42;;;;;;;10.20;2.25;;;;;;;13.40;54.62;98730.34;4935352;29;20028;-68
2021/05/26 06:53:08;;;;;;;12.52;2.53;;;;;;;13.47;54.57;98729.97;4936272;29;20030;-67
2021/05/26 06:55:33;;;;;;;10.15;2.30;;;;;;;13.55;54.60;98724.53;4944780;29;20035;-67
2021/05/26 06:57:58;;;;;;;10.38;2.47;;;;;;;13.64;54.50;98721.88;4939199;28;20043;-67
2021/05/26 07:00:24;;;;;;;6.70;2.15;;;;;;;13.70;53.09;98712.34;4934841;29;20544;-67
2021/05/26 07:02:49;;;;;;;10.45;2.17;;;;;;;13.72;53.27;98711.22;4945649;29;20073;-67
2021/05/26 07:05:15;;;;;;;7.57;2.20;;;;;;;13.76;52.97;98714.97;4953923;29;20106;-67
2021/05/26 07:07:40;;;;;;;7.35;2.40;;;;;;;13.83;52.52;98718.94;4952281;28;20090;-67
2021/05/26 07:10:06;;;;;;;9.23;2.20;;;;;;;13.89;52.40;98716.88;4953238;28;20042;-68
2021/05/26 07:12:31;;;;;;;7.57;2.47;;;;;;;13.93;52.58;98717.88;4948421;29;20043;-67
2021/05/26 07:14:57;;;;;;;9.70;2.13;;;;;;;13.99;51.43;98711.13;4936997;29;20039;-67
2021/05/26 07:17:22;;;;;;;8.73;2.15;;;;;;;14.06;51.78;98709.88;4937008;29;20470;-68
2021/05/26 07:19:47;;;;;;;4.95;2.03;;;;;;;14.08;50.43;98721.38;4936805;29;20055;-68
2021/05/26 07:22:13;;;;;;;4.45;1.80;;;;;;;14.08;50.96;98716.69;4939779;29;20070;-68
2021/05/26 07:24:38;;;;;;;4.78;1.70;;;;;;;14.13;50.37;98713.81;4934974;29;20498;-67
2021/05/26 07:27:04;;;;;;;9.27;1.90;;;;;;;14.20;50.28;98715.31;4950947;29;20066;-68
2021/05/26 07:29:29;;;;;;;4.57;1.90;;;;;;;14.25;50.34;98707.72;4953793;29;20106;-68
2021/05/26 07:31:55;;;;;;;6.78;2.10;;;;;;;14.30;50.06;98709.53;4936910;29;20035;-68
2021/05/26 07:34:20;;;;;;;7.32;1.98;;;;;;;14.40;49.97;98716.75;4944928;29;20500;-68
2021/05/26 07:36:45;;;;;;;9.82;2.03;;;;;;;14.47;50.32;98706.06;4945176;29;20051;-68
2021/05/26 07:39:11;;;;;;;7.32;1.58;;;;;;;14.55;49.85;98712.78;4954269;29;20078;-68
2021/05/26 07:41:36;;;;;;;7.13;1.67;;;;;;;14.60;49.65;98718.16;4954990;28;20038;-67
2021/05/26 07:44:02;;;;;;;7.35;2.05;;;;;;;14.66;48.12;98718.84;4942825;28;20068;-69
2021/05/26 07:46:28;;;;;;;7.38;1.77;;;;;;;14.67;48.13;98718.50;4935767;29;20127;-70
2021/05/26 07:48:53;;;;;;;7.13;1.83;;;;;;;14.70;47.78;98706.06;4947148;28;20110;-68
2021/05/26 07:51:27;;;;;;;8.20;2.35;;;;;;;14.75;48.28;98716.97;4953720;28;20058;-69
2021/05/26 07:53:53;;;;;;;6.65;2.00;;;;;;;14.81;46.93;98710.19;4951453;29;20031;-68
2021/05/26 07:56:20;;;;;;;4.60;1.60;;;;;;;14.83;46.92;98713.44;4941995;29;20039;-69
2021/05/26 07:58:45;;;;;;;9.38;1.98;;;;;;;14.88;47.66;98704.97;4949605;28;20047;-68
2021/05/26 08:01:10;;;;;;;8.32;2.00;;;;;;;14.96;47.62;98702.56;4944805;29;20106;-69
2021/05/26 08:03:36;;;;;;;7.32;1.63;;;;;;;15.01;47.16;98694.97;4933461;29;20036;-69
2021/05/26 08:06:01;;;;;;;6.72;1.60;;;;;;;14.99;45.04;98696.41;4929623;29;20027;-69
2021/05/26 08:08:26;;;;;;;7.38;1.80;;;;;;;14.94;45.25;98696.56;4940273;29;20038;-69
2021/05/26 08:10:52;;;;;;;8.02;1.60;;;;;;;14.95;45.03;98701.78;4934632;29;20028;-70
2021/05/26 08:13:17;;;;;;;5.95;1.65;;;;;;;14.98;45.95;98711.34;4934632;29;20032;-69
2021/05/26 08:15:43;;;;;;;7.30;2.00;;;;;;;15.04;45.20;98710.09;4935246;29;20616;-69
2021/05/26 08:18:08;;;;;;;5.55;1.63;;;;;;;15.06;45.12;98707.81;4944490;28;20655;-69
2021/05/26 08:20:34;;;;;;;6.55;1.63;;;;;;;15.11;44.93;98704.09;4948288;28;20058;-69
2021/05/26 08:22:59;;;;;;;7.30;1.90;;;;;;;15.15;45.57;98702.31;4937246;28;20106;-70
2021/05/26 08:25:24;;;;;;;4.90;1.50;;;;;;;15.17;43.83;98698.13;4938570;29;20031;-69
2021/05/26 08:27:50;;;;;;;8.75;1.60;;;;;;;15.20;43.10;98704.13;4932548;29;20059;-68
2021/05/26 08:30:16;;;;;;;5.82;2.00;;;;;;;15.21;43.71;98686.41;4937184;29;20047;-68
2021/05/26 08:32:41;;;;;;;7.82;1.55;;;;;;;15.26;44.40;98692.59;4933632;29;20054;-69
2021/05/26 08:35:07;;;;;;;5.40;2.28;;;;;;;15.31;44.30;98694.38;4938583;29;20490;-69
2021/05/26 08:37:32;;;;;;;7.55;1.90;;;;;;;15.36;43.69;98699.75;4937662;29;20047;-68
2021/05/26 08:39:58;;;;;;;4.60;1.45;;;;;;;15.38;43.25;98691.16;4945876;29;20440;-68
2021/05/26 08:42:25;;;;;;;4.50;1.58;;;;;;;15.37;42.78;98695.06;4944829;29;20027;-66
2021/05/26 08:44:50;;;;;;;8.65;1.92;;;;;;;15.29;42.79;98697.47;4941225;28;20027;-67
2021/05/26 08:47:18;;;;;;;4.28;1.70;;;;;;;15.28;43.44;98693.09;4936979;29;20628;-66
2021/05/26 08:49:45;;;;;;;5.82;1.70;;;;;;;15.36;43.35;98687.91;4948331;29;20078;-66
2021/05/26 08:52:13;;;;;;;11.93;1.95;;;;;;;15.44;43.39;98689.88;4939514;29;20032;-67
2021/05/26 08:54:39;;;;;;;6.32;1.70;;;;;;;15.48;43.32;98685.34;4937496;29;20030;-68
2021/05/26 08:57:05;;;;;;;4.63;1.52;;;;;;;15.52;42.58;98679.97;4944676;28;20126;-67
2021/05/26 08:59:30;;;;;;;8.20;1.92;;;;;;;15.56;42.98;98670.69;4947535;28;20031;-67
2021/05/26 09:01:56;;;;;;;10.40;1.95;;;;;;;15.69;43.17;98666.13;4939288;29;20040;-66
2021/05/26 09:04:34;;;;;;;5.05;1.98;;;;;;;15.77;43.25;98665.31;4941190;28;20054;-67
2021/05/26 09:07:10;;;;;;;6.15;1.63;;;;;;;15.88;42.82;98662.25;4936846;29;20114;-68
2021/05/26 09:09:46;;;;;;;5.38;1.50;;;;;;;15.97;43.21;98654.78;4939647;29;20028;-67
2021/05/26 09:12:12;;;;;;;7.22;1.80;;;;;;;16.05;42.18;98661.44;4939390;29;20035;-68
2021/05/26 09:14:38;;;;;;;7.00;1.60;;;;;;;16.11;42.09;98667.59;4934468;29;20655;-67
2021/05/26 09:17:12;;;;;;;6.22;2.20;;;;;;;16.20;41.88;98672.00;4937234;29;20114;-69
2021/05/26 09:19:38;;;;;;;4.53;1.52;;;;;;;16.24;41.06;98660.25;4937544;29;20386;-70
2021/05/26 09:22:10;;;;;;;7.18;1.52;;;;;;;16.27;41.48;98657.63;4950772;29;20042;-69
2021/05/26 09:24:35;;;;;;;8.55;2.28;;;;;;;16.33;41.65;98648.03;4950293;29;20035;-68
2021/05/26 09:27:07;;;;;;;6.05;1.58;;;;;;;16.38;39.76;98641.47;4947704;29;20033;-69
2021/05/26 09:29:33;;;;;;;3.70;1.23;;;;;;;16.40;39.32;98638.41;4942917;29;20031;-68
2021/05/26 09:32:24;;;;;;;4.38;1.30;;;;;;;16.38;39.81;98663.63;4938579;28;20114;-68
2021/05/26 09:34:58;;;;;;;7.95;1.83;;;;;;;16.39;38.31;98632.03;4940575;28;20879;-68
2021/05/26 09:37:27;;;;;;;5.10;1.70;;;;;;;16.40;39.03;98646.69;4931787;28;20044;-69
2021/05/26 09:39:54;;;;;;;7.00;1.63;;;;;;;16.42;39.15;98636.13;4930798;29;20036;-67
2021/05/26 09:42:32;;;;;;;6.80;1.60;;;;;;;16.50;39.66;98635.28;4945283;29;21866;-66
2021/05/26 09:45:16;;;;;;;12.45;1.95;;;;;;;16.54;38.64;98635.41;4934823;29;20405;-66
2021/05/26 09:47:52;;;;;;;6.10;1.35;;;;;;;16.56;38.17;98633.94;4933996;28;20063;-66
2021/05/26 09:50:35;;;;;;;5.85;1.50;;;;;;;16.59;39.35;98633.25;4949200;29;20031;-66
2021/05/26 09:53:12;;;;;;;7.60;1.52;;;;;;;16.65;39.29;98631.94;4949614;29;20047;-66
2021/05/26 09:55:47;;;;;;;5.45;1.85;;;;;;;16.73;40.19;98610.88;4947904;29;20067;-66
2021/05/26 09:58:14;;;;;;;7.63;1.90;;;;;;;16.81;39.75;98610.03;4936279;28;20046;-66
2021/05/26 10:00:45;;;;;;;6.85;1.67;;;;;;;16.88;40.12;98612.28;4944157;28;20058;-67
2021/05/26 10:03:10;;;;;;;4.55;1.50;;;;;;;16.93;40.10;98602.97;4934448;29;20043;-67
2021/05/26 10:05:38;;;;;;;6.75;1.75;;;;;;;16.99;39.54;98601.66;4948903;29;20422;-69
2021/05/26 10:08:07;;;;;;;5.25;1.63;;;;;;;17.06;39.16;98607.47;4944993;29;20577;-66
2021/05/26 10:10:33;;;;;;;7.35;1.48;;;;;;;17.13;38.85;98587.53;4939802;28;20027;-67
2021/05/26 10:13:04;;;;;;;6.55;1.40;;;;;;;17.17;37.35;98601.53;4928123;29;20027;-67
2021/05/26 10:15:33;;;;;;;5.57;1.58;;;;;;;17.18;37.50;98611.47;4940798;28;20054;-66
2021/05/26 10:18:00;;;;;;;6.05;1.50;;;;;;;17.17;37.44;98604.28;4947944;29;20031;-67
2021/05/26 10:20:29;;;;;;;7.55;2.08;;;;;;;17.12;38.13;98602.53;4928327;29;20024;-68
2021/05/26 10:22:57;;;;;;;5.13;1.50;;;;;;;17.10;38.68;98597.34;4929112;29;20057;-68
2021/05/26 10:25:23;;;;;;;4.18;1.60;;;;;;;17.16;38.94;98589.66;4930263;29;20446;-67
2021/05/26 10:27:54;;;;;;;5.07;1.40;;;;;;;17.27;39.33;98598.38;4929776;29;20036;-67
2021/05/26 10:30:24;;;;;;;8.27;1.65;;;;;;;17.39;40.10;98600.38;4930087;29;20438;-67
2021/05/26 10:32:59;;;;;;;5.40;1.70;;;;;;;17.49;39.25;98582.56;4930762;29;20457;-67
2021/05/26 10:35:29;;;;;;;6.38;1.73;;;;;;;17.53;38.63;98594.56;4945069;29;20038;-68
2021/05/26 10:38:04;;;;;;;7.22;1.73;;;;;;;17.56;38.33;98589.16;4939304;28;20519;-69
2021/05/26 10:40:33;;;;;;;6.03;1.70;;;;;;;17.58;37.21;98576.91;4935662;28;20115;-68
2021/05/26 10:43:17;;;;;;;8.90;1.67;;;;;;;17.52;37.15;98577.13;4936754;29;20090;-69
2021/05/26 10:45:44;;;;;;;7.82;1.55;;;;;;;17.53;37.74;98564.88;4934327;28;20032;-67
2021/05/26 10:48:10;;;;;;;7.20;2.20;;;;;;;17.60;37.85;98563.53;4934972;29;20066;-67
2021/05/26 10:50:44;;;;;;;4.47;1.92;;;;;;;17.65;36.44;98571.63;4941165;29;20410;-67
2021/05/26 10:53:10;;;;;;;7.28;1.77;;;;;;;17.67;36.76;98563.78;4936766;28;20064;-67
2021/05/26 10:55:43;;;;;;;3.78;1.63;;;;;;;17.64;36.51;98556.16;4936561;28;20481;-67
2021/05/26 10:58:13;;;;;;;6.55;2.15;;;;;;;17.63;36.99;98552.53;4944994;29;20043;-67
2021/05/26 11:00:41;;;;;;;5.40;1.77;;;;;;;17.67;37.46;98561.00;4941231;28;20055;-67
2021/05/26 11:03:30;;;;;;;8.10;1.88;;;;;;;17.70;37.62;98552.81;4934000;28;20031;-66
2021/05/26 11:06:13;;;;;;;10.07;2.97;;;;;;;17.77;38.02;98551.44;4938706;29;20055;-67
2021/05/26 11:08:48;;;;;;;6.78;1.92;;;;;;;17.78;37.79;98553.88;4932708;28;20055;-66
2021/05/26 11:11:26;;;;;;;6.30;1.65;;;;;;;17.82;37.44;98554.81;4949487;29;20063;-66
2021/05/26 11:14:04;;;;;;;8.80;1.90;;;;;;;17.89;38.14;98547.88;4948822;28;20041;-67
2021/05/26 11:16:45;;;;;;;9.80;2.17;;;;;;;17.95;36.54;98544.53;4942967;29;20077;-67
2021/05/26 11:19:12;;;;;;;6.97;2.10;;;;;;;17.95;37.30;98540.97;4947970;29;20039;-66
2021/05/26 11:21:38;;;;;;;5.43;1.50;;;;;;;17.94;37.04;98539.34;4939430;29;20118;-66
2021/05/26 11:24:04;;;;;;;5.43;1.90;;;;;;;17.97;37.17;98542.22;4932438;29;20032;-66
2021/05/26 11:26:34;;;;;;;6.07;1.80;;;;;;;18.02;37.35;98534.88;4933326;28;20081;-66
2021/05/26 11:28:59;;;;;;;5.18;1.80;;;;;;;18.01;36.34;98536.84;4931602;29;20492;-66
2021/05/26 11:31:25;;;;;;;5.18;1.73;;;;;;;17.99;37.16;98542.72;4933713;29;20155;-67
2021/05/26 11:33:59;;;;;;;8.20;1.83;;;;;;;18.05;37.62;98537.78;4932674;29;20043;-67